createdAt,value
2022-08-11T00:01:06.732Z,2.20
2022-08-11T00:03:43.097Z,2.30
2022-08-11T00:06:11.355Z,2.30
2022-08-11T00:08:38.953Z,2.53
2022-08-11T00:11:08.400Z,2.45
2022-08-11T00:13:47.684Z,2.40
2022-08-11T00:16:20.651Z,2.22
2022-08-11T00:18:51.443Z,2.30
2022-08-11T00:21:20.944Z,2.45
2022-08-11T00:24:09.257Z,2.30
2022-08-11T00:26:36.746Z,2.40
2022-08-11T00:29:13.794Z,2.05
2022-08-11T00:31:46.516Z,2.60
2022-08-11T00:34:14.591Z,2.78
2022-08-11T00:37:06.223Z,2.42
2022-08-11T00:39:37.002Z,2.58
2022-08-11T00:42:09.528Z,2.67
2022-08-11T00:44:53.568Z,2.28
2022-08-11T00:47:32.266Z,2.92
2022-08-11T00:50:07.759Z,2.70
2022-08-11T00:52:34.607Z,2.25
2022-08-11T00:55:16.062Z,2.53
2022-08-11T00:58:07.545Z,2.60
2022-08-11T01:00:57.897Z,2.53
2022-08-11T01:03:46.114Z,2.65
2022-08-11T01:06:52.436Z,2.75
2022-08-11T01:09:50.520Z,2.50
2022-08-11T01:12:36.159Z,2.97
2022-08-11T01:15:55.777Z,2.88
2022-08-11T01:18:48.435Z,2.70
2022-08-11T01:22:04.548Z,2.38
2022-08-11T01:24:57.227Z,2.70
2022-08-11T01:28:15.791Z,2.70
2022-08-11T01:31:09.795Z,3.20
2022-08-11T01:34:13.834Z,3.15
2022-08-11T01:36:53.497Z,2.90
2022-08-11T01:39:54.814Z,3.20
2022-08-11T01:43:16.236Z,2.97
2022-08-11T01:46:13.686Z,3.15
2022-08-11T01:48:45.170Z,3.22
2022-08-11T01:51:40.882Z,2.88
2022-08-11T01:54:29.176Z,2.95
2022-08-11T01:57:01.949Z,3.75
2022-08-11T01:59:33.138Z,3.10
2022-08-11T02:02:48.775Z,3.20
2022-08-11T02:05:21.179Z,3.13
2022-08-11T02:08:18.320Z,2.80
2022-08-11T02:11:35.678Z,3.00
2022-08-11T02:14:22.814Z,3.15
2022-08-11T02:17:13.482Z,3.13
2022-08-11T02:20:08.408Z,3.53
2022-08-11T02:22:56.351Z,2.90
2022-08-11T02:25:41.503Z,3.25
2022-08-11T02:31:11.676Z,2.90
2022-08-11T02:34:16.269Z,3.60
2022-08-11T02:36:52.599Z,3.70
2022-08-11T02:39:23.049Z,3.35
2022-08-11T02:42:34.890Z,2.80
2022-08-11T02:45:12.726Z,3.15
2022-08-11T02:48:33.936Z,3.33
2022-08-11T02:51:26.594Z,3.03
2022-08-11T02:54:17.431Z,3.33
2022-08-11T02:57:11.407Z,3.28
2022-08-11T03:00:07.357Z,3.42
2022-08-11T03:02:46.799Z,4.20
2022-08-11T03:05:31.129Z,3.30
2022-08-11T03:08:01.012Z,3.40
2022-08-11T03:11:07.729Z,3.22
2022-08-11T03:13:58.188Z,3.40
2022-08-11T03:16:46.648Z,3.80
2022-08-11T03:19:22.462Z,3.42
2022-08-11T03:22:24.279Z,3.53
2022-08-11T03:25:08.755Z,3.58
2022-08-11T03:28:03.816Z,3.35
2022-08-11T03:30:43.743Z,3.50
2022-08-11T03:33:49.542Z,3.42
2022-08-11T03:39:36.662Z,3.28
2022-08-11T03:42:16.760Z,3.80
2022-08-11T03:45:20.192Z,3.72
2022-08-11T03:48:10.350Z,3.42
2022-08-11T03:51:06.605Z,3.65
2022-08-11T03:53:44.076Z,3.60
2022-08-11T03:56:27.640Z,3.58
2022-08-11T03:59:00.171Z,3.30
2022-08-11T04:02:01.452Z,3.80
2022-08-11T04:04:55.511Z,3.60
2022-08-11T04:07:46.659Z,3.42
2022-08-11T04:10:36.063Z,3.20
2022-08-11T04:13:24.628Z,3.63
2022-08-11T04:16:11.486Z,3.80
2022-08-11T04:18:54.951Z,3.75
2022-08-11T04:21:51.900Z,3.83
2022-08-11T04:24:39.577Z,4.00
2022-08-11T04:27:39.017Z,3.75
2022-08-11T04:30:31.397Z,3.60
2022-08-11T04:32:58.772Z,3.13
2022-08-11T04:35:57.431Z,3.55
2022-08-11T04:38:58.550Z,3.67
2022-08-11T04:42:06.567Z,3.70
2022-08-11T04:44:57.380Z,3.30
2022-08-11T04:48:08.348Z,3.60
2022-08-11T04:51:17.574Z,3.90
2022-08-11T04:54:19.290Z,3.75
2022-08-11T04:57:07.611Z,3.72
2022-08-11T05:00:01.031Z,3.67
2022-08-11T05:03:01.561Z,4.20
2022-08-11T05:06:06.230Z,3.22
2022-08-11T05:08:54.874Z,3.22
2022-08-11T05:11:33.300Z,3.17
2022-08-11T05:14:46.450Z,3.63
2022-08-11T05:17:40.902Z,3.30
2022-08-11T05:20:29.780Z,3.65
2022-08-11T05:23:25.638Z,3.35
2022-08-11T05:26:47.685Z,3.05
2022-08-11T05:29:42.878Z,3.35
2022-08-11T05:32:32.655Z,3.42
2022-08-11T05:35:03.360Z,3.53
2022-08-11T05:37:29.654Z,3.95
2022-08-11T05:40:24.919Z,3.33
2022-08-11T05:46:04.526Z,3.35
2022-08-11T05:48:55.393Z,3.45
2022-08-11T05:51:54.885Z,3.60
2022-08-11T05:54:42.944Z,3.65
2022-08-11T05:57:44.014Z,3.13
2022-08-11T06:00:17.005Z,3.10
2022-08-11T06:02:55.724Z,2.95
2022-08-11T06:05:23.213Z,3.08
2022-08-11T06:07:57.331Z,2.97
2022-08-11T06:10:33.303Z,3.20
2022-08-11T06:13:01.475Z,2.70
2022-08-11T06:15:31.225Z,2.60
2022-08-11T06:18:01.117Z,2.70
2022-08-11T06:20:33.418Z,2.78
2022-08-11T06:23:03.695Z,2.53
2022-08-11T06:25:33.035Z,2.55
2022-08-11T06:28:00.815Z,2.65
2022-08-11T06:30:39.664Z,2.80
2022-08-11T06:33:13.747Z,2.95
2022-08-11T06:35:49.480Z,3.25
2022-08-11T06:38:26.119Z,2.83
2022-08-11T06:41:15.448Z,2.90
2022-08-11T06:43:55.811Z,2.55
2022-08-11T06:46:51.204Z,3.10
2022-08-11T06:49:40.632Z,2.78
2022-08-11T06:52:34.597Z,2.55
2022-08-11T06:55:12.614Z,2.75
2022-08-11T06:58:14.146Z,3.55
2022-08-11T07:00:42.270Z,2.63
2022-08-11T07:03:13.649Z,2.70
2022-08-11T07:05:47.356Z,2.97
2022-08-11T07:08:51.988Z,2.70
2022-08-11T07:12:05.354Z,2.75
2022-08-11T07:14:51.671Z,2.47
2022-08-11T07:17:28.596Z,2.85
2022-08-11T07:20:20.159Z,2.95
2022-08-11T07:23:16.712Z,2.80
2022-08-11T07:26:05.618Z,2.53
2022-08-11T07:28:52.868Z,2.90
2022-08-11T07:31:29.656Z,3.20
2022-08-11T07:34:22.969Z,2.80
2022-08-11T07:36:54.016Z,2.50
2022-08-11T07:39:23.196Z,2.63
2022-08-11T07:41:52.942Z,2.72
2022-08-11T07:44:20.987Z,3.22
2022-08-11T07:47:09.082Z,2.83
2022-08-11T07:49:56.837Z,2.72
2022-08-11T07:52:29.389Z,2.80
2022-08-11T07:55:00.563Z,3.03
2022-08-11T07:58:14.563Z,2.92
2022-08-11T08:01:22.197Z,2.78
2022-08-11T08:04:09.318Z,2.58
2022-08-11T08:06:57.131Z,2.70
2022-08-11T08:09:43.530Z,2.50
2022-08-11T08:12:30.221Z,2.42
2022-08-11T08:15:16.343Z,2.60
2022-08-11T08:18:20.449Z,2.70
2022-08-11T08:20:47.177Z,2.47
2022-08-11T08:23:15.039Z,2.63
2022-08-11T08:25:45.079Z,2.58
2022-08-11T08:28:16.679Z,2.10
2022-08-11T08:30:47.770Z,2.33
2022-08-11T08:33:19.439Z,2.65
2022-08-11T08:35:54.311Z,2.55
2022-08-11T08:38:22.553Z,2.45
2022-08-11T08:40:55.787Z,2.47
2022-08-11T08:43:24.647Z,2.50
2022-08-11T08:45:55.297Z,2.17
2022-08-11T08:48:25.347Z,2.20
2022-08-11T08:51:19.263Z,2.35
2022-08-11T08:53:54.463Z,2.00
2022-08-11T08:56:28.117Z,1.98
2022-08-11T08:58:58.875Z,2.17
2022-08-11T09:01:29.238Z,2.08
2022-08-11T09:04:04.865Z,2.40
2022-08-11T09:06:40.615Z,1.90
2022-08-11T09:09:12.090Z,1.75
2022-08-11T09:11:55.263Z,1.95
2022-08-11T09:14:52.042Z,2.23
2022-08-11T09:17:20.352Z,2.22
2022-08-11T09:19:54.110Z,1.95
2022-08-11T09:22:42.660Z,2.00
2022-08-11T09:25:27.893Z,1.65
2022-08-11T09:27:56.511Z,2.17
2022-08-11T09:30:28.380Z,1.70
2022-08-11T09:32:58.535Z,2.00
2022-08-11T09:35:28.175Z,2.40
2022-08-11T09:38:15.047Z,2.33
2022-08-11T09:40:45.071Z,2.20
2022-08-11T09:43:39.646Z,1.70
2022-08-11T09:46:07.218Z,1.88
2022-08-11T09:48:41.186Z,2.10
2022-08-11T09:51:09.699Z,1.80
2022-08-11T09:53:40.846Z,2.00
2022-08-11T09:56:37.804Z,2.15
2022-08-11T09:59:05.753Z,1.77
2022-08-11T10:01:37.638Z,1.88
2022-08-11T10:04:37.850Z,2.47
2022-08-11T10:07:06.831Z,2.05
2022-08-11T10:09:49.443Z,1.75
2022-08-11T10:12:25.416Z,1.95
2022-08-11T10:15:14.737Z,1.92
2022-08-11T10:18:07.806Z,1.77
2022-08-11T10:20:37.119Z,2.00
2022-08-11T10:23:23.953Z,1.80
2022-08-11T10:26:09.908Z,2.50
2022-08-11T10:28:55.825Z,2.22
2022-08-11T10:31:57.987Z,1.90
2022-08-11T10:34:29.234Z,2.33
2022-08-11T10:36:57.707Z,1.95
2022-08-11T10:39:25.854Z,1.80
2022-08-11T10:42:25.532Z,1.73
2022-08-11T10:45:01.641Z,1.50
2022-08-11T10:47:46.751Z,1.85
2022-08-11T10:50:34.793Z,1.90
2022-08-11T10:53:21.719Z,1.70
2022-08-11T10:56:07.472Z,1.92
2022-08-11T10:58:47.710Z,1.63
2022-08-11T11:01:16.599Z,1.70
2022-08-11T11:03:44.353Z,2.08
2022-08-11T11:06:29.805Z,1.70
2022-08-11T11:09:04.578Z,1.80
2022-08-11T11:11:58.144Z,1.67
2022-08-11T11:14:50.656Z,1.67
2022-08-11T11:17:46.640Z,1.83
2022-08-11T11:20:34.644Z,2.13
2022-08-11T11:23:29.088Z,1.75
2022-08-11T11:26:29.099Z,2.05
2022-08-11T11:29:20.892Z,1.83
2022-08-11T11:32:09.592Z,2.10
2022-08-11T11:34:53.706Z,1.77
2022-08-11T11:37:23.716Z,1.63
2022-08-11T11:39:50.752Z,2.08
2022-08-11T11:42:19.492Z,1.63
2022-08-11T11:44:47.689Z,1.80
2022-08-11T11:47:16.041Z,1.60
2022-08-11T11:49:45.460Z,1.77
2022-08-11T11:52:18.908Z,1.80
2022-08-11T11:54:51.936Z,2.05
2022-08-11T11:57:39.700Z,1.95
2022-08-11T12:00:33.057Z,1.98
2022-08-11T12:03:03.589Z,1.80
2022-08-11T12:05:33.514Z,2.25
2022-08-11T12:08:17.827Z,1.67
2022-08-11T12:10:47.524Z,1.70
2022-08-11T12:13:35.771Z,2.20
2022-08-11T12:16:33.990Z,1.83
2022-08-11T12:18:56.874Z,1.92
2022-08-11T12:21:25.722Z,1.80
2022-08-11T12:24:11.439Z,1.77
2022-08-11T12:27:16.518Z,1.80
2022-08-11T12:29:50.250Z,1.80
2022-08-11T12:32:20.363Z,2.00
2022-08-11T12:34:48.875Z,2.00
2022-08-11T12:37:19.949Z,2.08
2022-08-11T12:40:16.122Z,1.80
2022-08-11T12:43:21.570Z,1.77
2022-08-11T12:45:54.858Z,1.77
2022-08-11T12:48:59.471Z,2.00
2022-08-11T12:52:12.292Z,1.73
2022-08-11T12:55:13.705Z,1.60
2022-08-11T12:58:05.787Z,1.73
2022-08-11T13:00:52.200Z,1.70
2022-08-11T13:03:39.648Z,2.10
2022-08-11T13:06:07.657Z,1.70
2022-08-11T13:08:37.585Z,1.98
2022-08-11T13:11:23.740Z,1.77
2022-08-11T13:13:57.029Z,1.75
2022-08-11T13:16:56.228Z,2.10
2022-08-11T13:19:23.931Z,1.58
2022-08-11T13:21:52.331Z,1.60
2022-08-11T13:24:22.294Z,1.60
2022-08-11T13:26:50.923Z,1.67
2022-08-11T13:29:24.385Z,1.60
2022-08-11T13:31:53.768Z,1.55
2022-08-11T13:34:22.951Z,2.00
2022-08-11T13:36:54.632Z,1.70
2022-08-11T13:39:24.579Z,1.80
2022-08-11T13:41:52.317Z,1.55
2022-08-11T13:44:25.267Z,1.80
2022-08-11T13:46:53.939Z,1.70
2022-08-11T13:49:22.203Z,1.67
2022-08-11T13:51:49.451Z,1.73
2022-08-11T13:54:23.160Z,1.80
2022-08-11T13:56:54.425Z,1.60
2022-08-11T13:59:23.993Z,1.80
2022-08-11T14:02:20.770Z,1.80
2022-08-11T14:05:02.115Z,1.50
2022-08-11T14:07:36.697Z,1.77
2022-08-11T14:10:06.819Z,1.65
2022-08-11T14:12:54.010Z,1.95
2022-08-11T14:15:25.520Z,1.70
2022-08-11T14:18:14.719Z,1.70
2022-08-11T14:21:02.583Z,1.58
2022-08-11T14:23:37.799Z,1.50
2022-08-11T14:26:23.608Z,1.58
2022-08-11T14:28:55.619Z,1.65
2022-08-11T14:31:28.364Z,1.58
2022-08-11T14:34:01.815Z,2.13
2022-08-11T14:36:39.630Z,1.63
2022-08-11T14:39:12.782Z,1.70
2022-08-11T14:42:19.551Z,1.58
2022-08-11T14:45:07.787Z,1.58
2022-08-11T14:47:37.065Z,1.63
2022-08-11T14:50:11.341Z,1.98
2022-08-11T14:52:45.191Z,1.73
2022-08-11T14:55:32.208Z,1.87
2022-08-11T14:58:00.913Z,1.70
2022-08-11T15:00:27.961Z,1.73
2022-08-11T15:03:11.551Z,2.15
2022-08-11T15:08:09.099Z,1.30
2022-08-11T15:10:37.257Z,1.63
2022-08-11T15:13:05.760Z,1.63
2022-08-11T15:15:52.643Z,1.60
2022-08-11T15:18:24.623Z,1.75
2022-08-11T15:21:09.867Z,1.83
2022-08-11T15:23:58.179Z,1.58
2022-08-11T15:26:59.567Z,1.80
2022-08-11T15:29:51.137Z,1.90
2022-08-11T15:32:20.635Z,1.65
2022-08-11T15:35:14.474Z,1.35
2022-08-11T15:37:44.328Z,1.50
2022-08-11T15:40:44.548Z,1.70
2022-08-11T15:43:35.302Z,1.70
2022-08-11T15:46:08.055Z,1.85
2022-08-11T15:48:39.648Z,1.55
2022-08-11T15:51:10.625Z,1.80
2022-08-11T15:53:58.130Z,1.70
2022-08-11T15:56:31.122Z,1.67
2022-08-11T15:59:42.092Z,1.40
2022-08-11T16:02:30.778Z,1.70
2022-08-11T16:05:00.114Z,1.50
2022-08-11T16:07:30.307Z,1.58
2022-08-11T16:10:06.526Z,1.73
2022-08-11T16:12:40.499Z,1.70
2022-08-11T16:15:29.302Z,1.50
2022-08-11T16:18:06.646Z,1.48
2022-08-11T16:20:35.154Z,1.50
2022-08-11T16:23:04.702Z,2.80
2022-08-11T16:27:04.998Z,1.70
2022-08-11T16:28:23.501Z,1.83
2022-08-11T16:30:52.025Z,1.58
2022-08-11T16:33:48.428Z,1.80
2022-08-11T16:36:28.255Z,1.63
2022-08-11T16:38:56.814Z,1.40
2022-08-11T16:41:44.823Z,1.40
2022-08-11T16:44:32.913Z,1.80
2022-08-11T16:47:10.702Z,1.55
2022-08-11T16:49:43.434Z,1.55
2022-08-11T16:52:18.931Z,1.52
2022-08-11T16:54:47.563Z,1.70
2022-08-11T16:57:46.225Z,1.70
2022-08-11T17:00:16.156Z,1.42
2022-08-11T17:03:08.407Z,1.83
2022-08-11T17:05:55.254Z,1.73
2022-08-11T17:08:56.577Z,1.50
2022-08-11T17:11:46.491Z,2.08
2022-08-11T17:14:35.602Z,1.50
2022-08-11T17:17:06.583Z,1.45
2022-08-11T17:20:40.173Z,1.73
2022-08-11T17:22:41.686Z,1.70
2022-08-11T17:25:09.839Z,1.85
2022-08-11T17:27:38.582Z,2.25
2022-08-11T17:30:07.851Z,1.60
2022-08-11T17:33:00.583Z,1.63
2022-08-11T17:35:36.304Z,1.92
2022-08-11T17:38:05.972Z,1.55
2022-08-11T17:40:38.587Z,1.70
2022-08-11T17:43:27.556Z,1.85
2022-08-11T17:46:14.510Z,1.80
2022-08-11T17:48:47.916Z,1.80
2022-08-11T17:51:38.660Z,1.65
2022-08-11T17:54:25.621Z,1.90
2022-08-11T17:57:20.311Z,1.70
2022-08-11T17:59:53.115Z,1.90
2022-08-11T18:02:42.144Z,1.83
2022-08-11T18:05:13.638Z,1.52
2022-08-11T18:08:04.591Z,1.70
2022-08-11T18:10:50.841Z,1.58
2022-08-11T18:13:44.183Z,2.00
2022-08-11T18:16:29.553Z,1.70
2022-08-11T18:19:15.365Z,1.58
2022-08-11T18:22:15.767Z,1.88
2022-08-11T18:25:14.759Z,2.00
2022-08-11T18:28:03.805Z,1.90
2022-08-11T18:30:53.831Z,1.83
2022-08-11T18:34:06.877Z,1.80
2022-08-11T18:36:58.935Z,1.75
2022-08-11T18:39:54.644Z,2.28
2022-08-11T18:42:43.163Z,2.42
2022-08-11T18:45:33.054Z,2.10
2022-08-11T18:48:33.821Z,1.75
2022-08-11T18:51:31.718Z,1.95
2022-08-11T18:54:26.151Z,1.80
2022-08-11T18:57:13.642Z,2.05
2022-08-11T19:00:02.610Z,1.80
2022-08-11T19:02:50.828Z,4.45
2022-08-11T19:06:33.773Z,4.95
2022-08-11T19:08:50.169Z,3.40
2022-08-11T19:11:40.332Z,2.42
2022-08-11T19:14:30.930Z,2.80
2022-08-11T19:17:44.022Z,2.08
2022-08-11T19:20:39.255Z,2.17
2022-08-11T19:23:27.156Z,2.72
2022-08-11T19:26:13.431Z,2.10
2022-08-11T19:29:01.263Z,2.20
2022-08-11T19:31:48.127Z,2.60
2022-08-11T19:34:36.093Z,2.63
2022-08-11T19:37:24.954Z,1.90
2022-08-11T19:40:13.220Z,2.03
2022-08-11T19:43:01.109Z,2.47
2022-08-11T19:45:52.760Z,2.22
2022-08-11T19:48:41.136Z,1.90
2022-08-11T19:51:28.436Z,2.38
2022-08-11T19:54:14.559Z,2.10
2022-08-11T19:57:01.940Z,2.20
2022-08-11T19:59:48.339Z,2.33
2022-08-11T20:02:33.694Z,2.00
2022-08-11T20:05:19.077Z,1.98
2022-08-11T20:08:05.767Z,2.00
2022-08-11T20:10:52.938Z,1.95
2022-08-11T20:13:42.606Z,2.22
2022-08-11T20:16:31.943Z,2.40
2022-08-11T20:19:19.671Z,2.17
2022-08-11T20:22:13.244Z,2.45
2022-08-11T20:24:59.216Z,2.30
2022-08-11T20:27:44.651Z,2.22
2022-08-11T20:30:30.924Z,2.13
2022-08-11T20:33:17.127Z,2.38
2022-08-11T20:36:03.079Z,2.40
2022-08-11T20:38:51.943Z,2.40
2022-08-11T20:41:58.181Z,2.03
2022-08-11T20:44:45.052Z,2.45
2022-08-11T20:47:32.910Z,2.55
2022-08-11T20:50:39.022Z,3.83
2022-08-11T20:53:25.739Z,2.50
2022-08-11T20:56:17.006Z,2.38
2022-08-11T20:59:17.337Z,2.13
2022-08-11T21:02:09.733Z,2.40
2022-08-11T21:04:56.940Z,2.50
2022-08-11T21:07:55.167Z,2.28
2022-08-11T21:10:46.949Z,2.38
2022-08-11T21:13:34.152Z,2.22
2022-08-11T21:16:25.980Z,2.38
2022-08-11T21:19:16.196Z,2.47
2022-08-11T21:22:03.617Z,2.28
2022-08-11T21:24:51.711Z,2.28
2022-08-11T21:27:40.002Z,2.40
2022-08-11T21:30:26.115Z,2.28
2022-08-11T21:33:13.402Z,2.38
2022-08-11T21:36:00.775Z,2.75
2022-08-11T21:38:48.404Z,2.13
2022-08-11T21:41:35.202Z,2.53
2022-08-11T21:44:22.447Z,2.60
2022-08-11T21:47:08.849Z,2.53
2022-08-11T21:49:57.000Z,2.42
2022-08-11T21:52:42.195Z,2.25
2022-08-11T21:55:28.661Z,2.42
2022-08-11T21:58:15.873Z,2.35
2022-08-11T22:01:02.735Z,2.70
2022-08-11T22:03:49.737Z,2.33
2022-08-11T22:06:36.724Z,2.20
2022-08-11T22:09:22.411Z,2.40
2022-08-11T22:12:34.431Z,2.53
2022-08-11T22:15:14.009Z,2.63
2022-08-11T22:17:58.698Z,2.60
2022-08-11T22:20:46.032Z,2.22
2022-08-11T22:23:36.277Z,2.42
2022-08-11T22:26:22.729Z,2.10
2022-08-11T22:29:08.578Z,2.28
2022-08-11T22:31:57.127Z,2.50
2022-08-11T22:34:52.714Z,2.60
2022-08-11T22:37:40.954Z,2.50
2022-08-11T22:40:28.672Z,2.25
2022-08-11T22:43:13.857Z,2.83
2022-08-11T22:45:59.496Z,2.10
2022-08-11T22:48:47.239Z,2.33
2022-08-11T22:51:34.471Z,2.65
2022-08-11T22:54:21.778Z,2.55
2022-08-11T22:57:07.957Z,2.60
2022-08-11T22:59:55.058Z,2.47
2022-08-11T23:02:41.600Z,2.58
2022-08-11T23:05:27.769Z,2.53
2022-08-11T23:08:15.084Z,2.17
2022-08-11T23:11:00.482Z,2.45
2022-08-11T23:13:47.781Z,2.53
2022-08-11T23:16:33.484Z,2.38
2022-08-11T23:20:01.578Z,2.92
2022-08-11T23:22:36.894Z,2.50
2022-08-11T23:25:30.634Z,2.28
2022-08-11T23:28:18.335Z,2.42
2022-08-11T23:31:04.175Z,2.50
2022-08-11T23:33:51.493Z,3.00
2022-08-11T23:36:47.649Z,2.60
2022-08-11T23:39:34.132Z,3.38
2022-08-11T23:42:20.201Z,3.03
2022-08-11T23:45:07.256Z,2.58
2022-08-11T23:47:58.075Z,2.75
2022-08-11T23:50:43.838Z,2.75
2022-08-11T23:53:31.739Z,3.20
2022-08-11T23:56:21.703Z,2.72
2022-08-11T23:59:09.818Z,2.85
